createdAt,value
2023-04-09T00:01:45.720Z,102826.78
2023-04-09T00:03:47.353Z,102826.78
2023-04-09T00:05:49.010Z,102827.69
2023-04-09T00:07:50.485Z,102827.69
2023-04-09T00:09:51.943Z,102827.69
2023-04-09T00:11:53.917Z,102828.56
2023-04-09T00:13:55.455Z,102819.75
2023-04-09T00:15:56.915Z,102828.53
2023-04-09T00:17:58.774Z,102826.78
2023-04-09T00:20:00.488Z,102828.53
2023-04-09T00:22:01.961Z,102825.00
2023-04-09T00:24:03.590Z,102824.16
2023-04-09T00:26:05.330Z,102821.50
2023-04-09T00:28:06.826Z,102816.22
2023-04-09T00:30:08.938Z,102824.13
2023-04-09T00:32:10.492Z,102825.88
2023-04-09T00:34:11.995Z,102820.59
2023-04-09T00:36:13.542Z,102819.72
2023-04-09T00:38:15.487Z,102823.19
2023-04-09T00:40:17.059Z,102815.28
2023-04-09T00:42:18.518Z,102817.03
2023-04-09T00:44:19.985Z,102814.38
2023-04-09T00:46:21.520Z,102817.88
2023-04-09T00:48:23.129Z,102820.50
2023-04-09T00:50:24.704Z,102812.63
2023-04-09T00:52:26.593Z,102816.13
2023-04-09T00:54:28.319Z,102821.38
2023-04-09T00:56:30.258Z,102816.97
2023-04-09T00:58:31.824Z,102816.09
2023-04-09T01:00:33.300Z,102809.94
2023-04-09T01:02:35.240Z,102809.94
2023-04-09T01:04:38.522Z,102807.31
2023-04-09T01:06:52.188Z,102805.53
2023-04-09T01:08:56.648Z,102801.09
2023-04-09T01:11:21.949Z,102801.09
2023-04-09T01:13:42.650Z,102804.56
2023-04-09T01:15:52.096Z,102806.31
2023-04-09T01:18:01.473Z,102802.78
2023-04-09T01:20:08.973Z,102803.66
2023-04-09T01:22:42.427Z,102802.78
2023-04-09T01:25:05.156Z,102815.03
2023-04-09T01:27:08.280Z,102814.13
2023-04-09T01:29:11.126Z,102810.63
2023-04-09T01:31:18.903Z,102799.25
2023-04-09T01:33:21.903Z,102807.97
2023-04-09T01:35:24.441Z,102801.84
2023-04-09T01:37:27.011Z,102807.97
2023-04-09T01:39:29.485Z,102806.22
2023-04-09T01:41:34.183Z,102806.22
2023-04-09T01:43:37.321Z,102805.31
2023-04-09T01:45:40.242Z,102795.66
2023-04-09T01:47:41.882Z,102795.66
2023-04-09T01:49:44.737Z,102799.16
2023-04-09T01:51:47.507Z,102804.41
2023-04-09T01:53:49.553Z,102800.00
2023-04-09T01:55:51.067Z,102800.00
2023-04-09T01:57:52.589Z,102803.50
2023-04-09T01:59:55.070Z,102807.00
2023-04-09T02:02:11.288Z,102807.91
2023-04-09T02:04:28.371Z,102800.88
2023-04-09T02:06:40.055Z,102805.25
2023-04-09T02:08:46.383Z,102803.47
2023-04-09T02:10:53.654Z,102799.97
2023-04-09T02:12:56.475Z,102801.72
2023-04-09T02:14:59.997Z,102800.81
2023-04-09T02:17:02.138Z,102799.06
2023-04-09T02:19:03.815Z,102804.31
2023-04-09T02:21:05.966Z,102809.59
2023-04-09T02:23:07.482Z,102799.94
2023-04-09T02:25:09.140Z,102798.16
2023-04-09T02:27:10.742Z,102800.78
2023-04-09T02:29:12.225Z,102797.25
2023-04-09T02:31:13.961Z,102790.25
2023-04-09T02:33:15.623Z,102796.38
2023-04-09T02:35:17.287Z,102795.50
2023-04-09T02:37:18.758Z,102795.50
2023-04-09T02:39:20.408Z,102793.72
2023-04-09T02:41:21.986Z,102793.72
2023-04-09T02:43:23.758Z,102789.34
2023-04-09T02:45:25.403Z,102789.34
2023-04-09T02:47:27.264Z,102791.09
2023-04-09T02:49:28.869Z,102788.47
2023-04-09T02:51:30.341Z,102789.31
2023-04-09T02:53:31.900Z,102778.81
2023-04-09T02:55:33.892Z,102777.00
2023-04-09T02:57:36.356Z,102778.75
2023-04-09T02:59:39.080Z,102777.00
2023-04-09T03:01:41.014Z,102773.50
2023-04-09T03:03:43.136Z,102775.25
2023-04-09T03:05:44.941Z,102768.22
2023-04-09T03:07:47.385Z,102771.72
2023-04-09T03:09:48.909Z,102779.63
2023-04-09T03:11:50.583Z,102770.84
2023-04-09T03:13:52.058Z,102772.59
2023-04-09T03:15:53.665Z,102770.84
2023-04-09T03:17:55.231Z,102769.06
2023-04-09T03:19:56.739Z,102774.31
2023-04-09T03:21:58.536Z,102768.16
2023-04-09T03:24:00.164Z,102767.28
2023-04-09T03:26:03.254Z,102764.66
2023-04-09T03:28:04.767Z,102757.63
2023-04-09T03:30:06.727Z,102758.50
2023-04-09T03:32:08.236Z,102756.75
2023-04-09T03:34:09.751Z,102749.72
2023-04-09T03:36:11.341Z,102759.28
2023-04-09T03:38:12.973Z,102762.78
2023-04-09T03:40:14.551Z,102761.00
2023-04-09T03:42:16.105Z,102759.22
2023-04-09T03:44:17.597Z,102754.81
2023-04-09T03:46:19.155Z,102756.56
2023-04-09T03:48:20.644Z,102749.53
2023-04-09T03:50:22.152Z,102753.00
2023-04-09T03:52:23.676Z,102743.34
2023-04-09T03:54:25.173Z,102744.16
2023-04-09T03:56:26.724Z,102743.25
2023-04-09T03:58:28.223Z,102751.09
2023-04-09T04:00:29.713Z,102751.03
2023-04-09T04:02:33.758Z,102743.09
2023-04-09T04:04:35.469Z,102750.06
2023-04-09T04:06:36.984Z,102748.22
2023-04-09T04:08:38.521Z,102744.69
2023-04-09T04:10:40.301Z,102741.97
2023-04-09T04:12:41.824Z,102741.03
2023-04-09T04:14:43.419Z,102740.94
2023-04-09T04:16:45.018Z,102747.00
2023-04-09T04:18:46.606Z,102755.69
2023-04-09T04:20:48.083Z,102753.00
2023-04-09T04:22:49.590Z,102749.41
2023-04-09T04:24:51.089Z,102752.84
2023-04-09T04:26:52.545Z,102753.63
2023-04-09T04:28:54.133Z,102747.38
2023-04-09T04:30:55.924Z,102752.56
2023-04-09T04:32:57.434Z,102752.47
2023-04-09T04:34:58.990Z,102761.16
2023-04-09T04:37:00.454Z,102757.56
2023-04-09T04:39:01.998Z,102763.66
2023-04-09T04:41:03.892Z,102759.22
2023-04-09T04:43:05.409Z,102768.78
2023-04-09T04:45:07.573Z,102773.09
2023-04-09T04:47:09.132Z,102773.00
2023-04-09T04:49:10.808Z,102775.59
2023-04-09T04:51:12.279Z,102778.16
2023-04-09T04:53:13.775Z,102783.31
2023-04-09T04:55:15.375Z,102779.72
2023-04-09T04:57:16.869Z,102780.56
2023-04-09T04:59:18.430Z,102783.13
2023-04-09T05:01:19.949Z,102785.69
2023-04-09T05:03:21.561Z,102782.16
2023-04-09T05:05:23.569Z,102781.19
2023-04-09T05:07:25.069Z,102782.88
2023-04-09T05:09:26.626Z,102778.50
2023-04-09T05:11:28.465Z,102785.41
2023-04-09T05:13:29.944Z,102783.56
2023-04-09T05:15:31.468Z,102777.41
2023-04-09T05:17:33.046Z,102785.25
2023-04-09T05:19:34.577Z,102796.56
2023-04-09T05:21:36.062Z,102800.00
2023-04-09T05:23:37.604Z,102801.75
2023-04-09T05:25:39.475Z,102795.63
2023-04-09T05:27:41.031Z,102799.09
2023-04-09T05:29:42.568Z,102798.22
2023-04-09T05:31:44.176Z,102794.75
2023-04-09T05:33:45.778Z,102794.78
2023-04-09T05:35:47.301Z,102799.22
2023-04-09T05:37:49.134Z,102800.94
2023-04-09T05:39:50.903Z,102793.97
2023-04-09T05:41:52.792Z,102789.63
2023-04-09T05:43:54.492Z,102796.69
2023-04-09T05:45:56.134Z,102795.00
2023-04-09T05:47:57.663Z,102796.78
2023-04-09T05:49:59.167Z,102794.22
2023-04-09T05:52:00.760Z,102795.13
2023-04-09T05:54:03.351Z,102796.06
2023-04-09T05:56:13.376Z,102796.13
2023-04-09T05:58:16.029Z,102798.75
2023-04-09T06:00:18.366Z,102796.19
2023-04-09T06:02:20.063Z,102797.97
2023-04-09T06:04:21.863Z,102794.53
2023-04-09T06:06:23.484Z,102800.72
2023-04-09T06:08:24.962Z,102797.31
2023-04-09T06:10:26.529Z,102798.28
2023-04-09T06:12:28.075Z,102799.25
2023-04-09T06:14:29.816Z,102792.28
2023-04-09T06:16:32.852Z,102792.38
2023-04-09T06:18:34.997Z,102795.06
2023-04-09T06:20:36.494Z,102798.59
2023-04-09T06:22:38.044Z,102800.44
2023-04-09T06:24:39.582Z,102793.44
2023-04-09T06:26:41.528Z,102800.44
2023-04-09T06:28:43.251Z,102801.38
2023-04-09T06:30:44.845Z,102799.66
2023-04-09T06:32:54.590Z,102805.84
2023-04-09T06:34:56.910Z,102806.78
2023-04-09T06:36:58.405Z,102810.34
2023-04-09T06:38:59.925Z,102808.66
2023-04-09T06:41:01.383Z,102801.78
2023-04-09T06:43:02.864Z,102800.97
2023-04-09T06:45:08.505Z,102801.09
2023-04-09T06:47:10.159Z,102809.03
2023-04-09T06:49:11.711Z,102805.63
2023-04-09T06:51:13.485Z,102808.31
2023-04-09T06:53:15.442Z,102811.03
2023-04-09T06:55:17.037Z,102810.22
2023-04-09T06:57:18.490Z,102806.81
2023-04-09T06:59:19.946Z,102811.28
2023-04-09T07:01:21.489Z,102816.56
2023-04-09T07:03:23.631Z,102813.09
2023-04-09T07:05:25.277Z,102816.69
2023-04-09T07:07:26.759Z,102818.50
2023-04-09T07:09:28.228Z,102821.16
2023-04-09T07:11:29.731Z,102815.09
2023-04-09T07:13:32.960Z,102821.28
2023-04-09T07:15:34.627Z,102821.34
2023-04-09T07:17:36.175Z,102820.59
2023-04-09T07:19:37.677Z,102818.03
2023-04-09T07:21:39.259Z,102823.44
2023-04-09T07:23:40.812Z,102825.28
2023-04-09T07:25:42.461Z,102822.75
2023-04-09T07:27:44.596Z,102821.06
2023-04-09T07:29:46.621Z,102821.94
2023-04-09T07:31:48.183Z,102821.13
2023-04-09T07:33:49.720Z,102822.06
2023-04-09T07:35:51.336Z,102817.75
2023-04-09T07:37:52.987Z,102824.84
2023-04-09T07:39:54.513Z,102821.41
2023-04-09T07:41:57.437Z,102821.50
2023-04-09T07:43:59.289Z,102814.50
2023-04-09T07:46:00.733Z,102818.09
2023-04-09T07:48:02.271Z,102814.63
2023-04-09T07:50:04.103Z,102814.69
2023-04-09T07:52:06.382Z,102819.13
2023-04-09T07:54:08.914Z,102823.59
2023-04-09T07:56:10.476Z,102825.44
2023-04-09T07:58:12.035Z,102822.81
2023-04-09T08:00:14.011Z,102824.63
2023-04-09T08:02:15.701Z,102827.25
2023-04-09T08:04:18.020Z,102820.25
2023-04-09T08:06:19.872Z,102823.84
2023-04-09T08:08:21.828Z,102824.75
2023-04-09T08:10:23.354Z,102824.81
2023-04-09T08:12:24.931Z,102816.09
2023-04-09T08:14:26.479Z,102817.88
2023-04-09T08:16:30.108Z,102821.50
2023-04-09T08:18:31.699Z,102817.19
2023-04-09T08:20:33.350Z,102811.94
2023-04-09T08:22:34.829Z,102819.88
2023-04-09T08:24:37.048Z,102819.06
2023-04-09T08:26:39.907Z,102818.25
2023-04-09T08:28:42.014Z,102819.16
2023-04-09T08:30:44.149Z,102826.22
2023-04-09T08:32:45.764Z,102823.69
2023-04-09T08:34:47.361Z,102814.06
2023-04-09T08:36:49.944Z,102811.47
2023-04-09T08:38:53.263Z,102818.50
2023-04-09T08:40:54.892Z,102819.38
2023-04-09T08:42:59.429Z,102813.25
2023-04-09T08:45:04.236Z,102819.56
2023-04-09T08:47:11.651Z,102816.09
2023-04-09T08:49:13.273Z,102820.53
2023-04-09T08:51:24.821Z,102813.56
2023-04-09T08:53:27.441Z,102816.19
2023-04-09T08:55:29.285Z,102812.69
2023-04-09T08:57:31.113Z,102813.59
2023-04-09T08:59:36.896Z,102818.88
2023-04-09T09:01:38.512Z,102816.28
2023-04-09T09:04:08.955Z,102818.91
2023-04-09T09:06:22.160Z,102818.97
2023-04-09T09:08:24.899Z,102810.19
2023-04-09T09:10:37.336Z,102812.84
2023-04-09T09:12:41.081Z,102804.06
2023-04-09T09:14:42.612Z,102806.69
2023-04-09T09:16:57.762Z,102797.91
2023-04-09T09:19:00.307Z,102801.44
2023-04-09T09:21:11.299Z,102800.63
2023-04-09T09:23:12.812Z,102797.97
2023-04-09T09:25:14.292Z,102797.97
2023-04-09T09:27:43.181Z,102801.50
2023-04-09T09:29:45.123Z,102794.47
2023-04-09T09:31:49.396Z,102791.81
2023-04-09T09:33:51.626Z,102795.38
2023-04-09T09:35:54.470Z,102790.97
2023-04-09T09:38:05.336Z,102788.31
2023-04-09T09:40:07.815Z,102790.97
2023-04-09T09:42:09.412Z,102791.84
2023-04-09T09:44:12.504Z,102789.19
2023-04-09T09:46:15.392Z,102790.06
2023-04-09T09:48:16.878Z,102790.06
2023-04-09T09:50:19.006Z,102794.50
2023-04-09T09:52:30.254Z,102781.25
2023-04-09T09:54:40.964Z,102775.97
2023-04-09T09:56:44.318Z,102783.00
2023-04-09T09:58:53.500Z,102782.13
2023-04-09T10:00:57.425Z,102780.34
2023-04-09T10:03:21.372Z,102776.84
2023-04-09T10:05:26.921Z,102776.84
2023-04-09T10:07:29.587Z,102773.25
2023-04-09T10:09:32.271Z,102767.91
2023-04-09T10:11:36.580Z,102762.53
2023-04-09T10:13:40.770Z,102770.47
2023-04-09T10:15:44.675Z,102766.88
2023-04-09T10:17:46.686Z,102767.75
2023-04-09T10:19:56.871Z,102763.28
2023-04-09T10:22:05.758Z,102767.59
2023-04-09T10:24:09.143Z,102763.09
2023-04-09T10:26:11.311Z,102761.22
2023-04-09T10:28:23.298Z,102762.88
2023-04-09T10:30:35.073Z,102763.66
2023-04-09T10:32:36.854Z,102760.09
2023-04-09T10:34:43.856Z,102761.84
2023-04-09T10:36:49.676Z,102768.00
2023-04-09T10:38:51.588Z,102752.81
2023-04-09T10:40:53.375Z,102748.25
2023-04-09T10:42:59.439Z,102749.03
2023-04-09T10:45:11.523Z,102747.97
2023-04-09T10:47:32.945Z,102750.47
2023-04-09T10:49:38.398Z,102751.56
2023-04-09T10:51:40.608Z,102754.19
2023-04-09T10:53:42.234Z,102754.78
2023-04-09T10:55:52.704Z,102755.44
2023-04-09T10:57:54.217Z,102751.00
2023-04-09T10:59:55.985Z,102746.50
2023-04-09T11:01:57.600Z,102743.53
2023-04-09T11:04:16.487Z,102741.25
2023-04-09T11:06:21.368Z,102744.03
2023-04-09T11:08:22.881Z,102737.38
2023-04-09T11:10:24.490Z,102739.34
2023-04-09T11:12:26.022Z,102731.75
2023-04-09T11:14:27.729Z,102728.78
2023-04-09T11:16:30.873Z,102729.69
2023-04-09T11:18:34.826Z,102731.97
2023-04-09T11:20:36.681Z,102721.38
2023-04-09T11:22:38.618Z,102719.19
2023-04-09T11:24:43.650Z,102722.16
2023-04-09T11:26:45.936Z,102720.94
2023-04-09T11:28:47.435Z,102710.88
2023-04-09T11:30:51.412Z,102721.69
2023-04-09T11:32:53.639Z,102722.00
2023-04-09T11:34:57.058Z,102705.13
2023-04-09T11:36:59.804Z,102706.59
2023-04-09T11:39:02.471Z,102706.69
2023-04-09T11:41:03.971Z,102707.06
2023-04-09T11:43:08.232Z,102709.22
2023-04-09T11:45:11.416Z,102705.66
2023-04-09T11:47:18.589Z,102712.44
2023-04-09T11:49:20.930Z,102709.34
2023-04-09T11:51:23.409Z,102707.38
2023-04-09T11:53:30.979Z,102714.19
2023-04-09T11:55:33.688Z,102707.38
2023-04-09T11:57:43.044Z,102709.03
2023-04-09T11:59:45.217Z,102708.78
2023-04-09T12:01:50.407Z,102705.91
2023-04-09T12:03:54.505Z,102699.97
2023-04-09T12:05:56.465Z,102703.16
2023-04-09T12:08:08.037Z,102702.72
2023-04-09T12:10:10.468Z,102698.50
2023-04-09T12:12:12.097Z,102691.84
2023-04-09T12:14:14.866Z,102692.38
2023-04-09T12:16:21.138Z,102700.81
2023-04-09T12:18:23.550Z,102700.91
2023-04-09T12:20:35.639Z,102699.91
2023-04-09T12:22:40.739Z,102698.84
2023-04-09T12:24:42.293Z,102692.38
2023-04-09T12:26:45.484Z,102684.31
2023-04-09T12:28:46.953Z,102686.91
2023-04-09T12:30:49.123Z,102686.94
2023-04-09T12:32:52.559Z,102689.44
2023-04-09T12:34:54.003Z,102684.94
2023-04-09T12:36:55.564Z,102686.09
2023-04-09T12:38:57.094Z,102684.19
2023-04-09T12:40:59.036Z,102682.75
2023-04-09T12:43:01.463Z,102679.72
2023-04-09T12:45:03.087Z,102682.03
2023-04-09T12:47:04.548Z,102680.13
2023-04-09T12:49:06.428Z,102679.53
2023-04-09T12:51:08.926Z,102683.34
2023-04-09T12:53:10.549Z,102679.63
2023-04-09T12:55:13.065Z,102683.03
2023-04-09T12:57:14.570Z,102678.88
2023-04-09T12:59:16.025Z,102675.19
2023-04-09T13:01:18.134Z,102658.88
2023-04-09T13:03:20.217Z,102662.91
2023-04-09T13:05:21.859Z,102656.53
2023-04-09T13:07:23.519Z,102659.94
2023-04-09T13:09:25.742Z,102650.94
2023-04-09T13:11:27.361Z,102653.91
2023-04-09T13:13:28.822Z,102655.03
2023-04-09T13:15:30.359Z,102652.91
2023-04-09T13:17:31.856Z,102651.25
2023-04-09T13:19:33.499Z,102648.13
2023-04-09T13:21:36.001Z,102652.31
2023-04-09T13:23:37.487Z,102652.38
2023-04-09T13:25:39.043Z,102640.53
2023-04-09T13:27:40.499Z,102646.44
2023-04-09T13:29:41.982Z,102642.69
2023-04-09T13:31:43.654Z,102645.88
2023-04-09T13:33:45.255Z,102638.75
2023-04-09T13:35:46.794Z,102639.44
2023-04-09T13:37:48.288Z,102628.44
2023-04-09T13:39:50.804Z,102632.78
2023-04-09T13:41:52.406Z,102632.00
2023-04-09T13:43:53.878Z,102632.78
2023-04-09T13:45:55.910Z,102638.38
2023-04-09T13:47:57.703Z,102629.16
2023-04-09T13:49:59.215Z,102632.31
2023-04-09T13:52:01.074Z,102632.69
2023-04-09T13:54:04.530Z,102626.88
2023-04-09T13:56:07.624Z,102627.34
2023-04-09T13:58:09.362Z,102631.28
2023-04-09T14:00:11.213Z,102629.59
2023-04-09T14:02:13.001Z,102631.22
2023-04-09T14:04:15.118Z,102636.91
2023-04-09T14:06:16.781Z,102631.03
2023-04-09T14:08:18.365Z,102634.91
2023-04-09T14:10:19.858Z,102628.38
2023-04-09T14:12:21.336Z,102610.00
2023-04-09T14:14:22.950Z,102617.09
2023-04-09T14:16:24.538Z,102609.25
2023-04-09T14:18:26.076Z,102602.34
2023-04-09T14:20:27.998Z,102599.47
2023-04-09T14:22:29.918Z,102594.34
2023-04-09T14:24:31.440Z,102591.84
2023-04-09T14:26:32.905Z,102594.91
2023-04-09T14:28:34.420Z,102590.72
2023-04-09T14:30:35.979Z,102593.28
2023-04-09T14:32:37.502Z,102588.81
2023-04-09T14:34:39.103Z,102587.22
2023-04-09T14:36:40.796Z,102591.53
2023-04-09T14:38:42.254Z,102583.09
2023-04-09T14:40:44.032Z,102584.66
2023-04-09T14:42:45.648Z,102589.00
2023-04-09T14:44:47.135Z,102587.03
2023-04-09T14:46:48.612Z,102589.66
2023-04-09T14:48:50.372Z,102586.16
2023-04-09T14:50:52.337Z,102581.41
2023-04-09T14:52:53.843Z,102579.78
2023-04-09T14:54:55.350Z,102581.44
2023-04-09T14:56:59.887Z,102576.25
2023-04-09T14:59:01.371Z,102583.88
2023-04-09T15:01:04.266Z,102576.56
2023-04-09T15:03:05.885Z,102582.88
2023-04-09T15:05:08.709Z,102579.06
2023-04-09T15:07:10.164Z,102569.31
2023-04-09T15:09:12.116Z,102576.59
2023-04-09T15:11:18.187Z,102568.28
2023-04-09T15:13:19.728Z,102563.22
2023-04-09T15:15:21.207Z,102564.22
2023-04-09T15:17:23.051Z,102563.53
2023-04-09T15:19:24.556Z,102562.91
2023-04-09T15:21:27.766Z,102558.53
2023-04-09T15:23:29.350Z,102558.94
2023-04-09T15:25:30.898Z,102564.69
2023-04-09T15:27:32.750Z,102559.13
2023-04-09T15:29:34.504Z,102558.59
2023-04-09T15:31:36.326Z,102556.56
2023-04-09T15:33:38.327Z,102554.91
2023-04-09T15:35:39.858Z,102562.69
2023-04-09T15:37:41.716Z,102562.06
2023-04-09T15:39:43.331Z,102569.19
2023-04-09T15:41:45.621Z,102563.25
2023-04-09T15:43:47.086Z,102567.31
2023-04-09T15:45:49.560Z,102564.53
2023-04-09T15:47:51.218Z,102546.59
2023-04-09T15:49:52.763Z,102550.41
2023-04-09T15:51:54.258Z,102547.78
2023-04-09T15:53:55.713Z,102548.66
2023-04-09T15:55:58.204Z,102546.75
2023-04-09T15:57:59.701Z,102554.28
2023-04-09T16:00:01.331Z,102546.13
2023-04-09T16:02:04.497Z,102547.56
2023-04-09T16:04:06.082Z,102554.03
2023-04-09T16:06:14.470Z,102548.53
2023-04-09T16:08:16.089Z,102546.84
2023-04-09T16:10:20.438Z,102549.28
2023-04-09T16:12:23.270Z,102548.72
2023-04-09T16:14:24.727Z,102541.41
2023-04-09T16:16:26.302Z,102546.66
2023-04-09T16:18:27.820Z,102541.81
2023-04-09T16:20:29.432Z,102543.88
2023-04-09T16:22:32.306Z,102534.41
2023-04-09T16:24:33.952Z,102535.59
2023-04-09T16:26:35.442Z,102536.19
2023-04-09T16:28:36.894Z,102542.09
2023-04-09T16:30:38.365Z,102538.19
2023-04-09T16:32:39.856Z,102537.03
2023-04-09T16:34:41.346Z,102539.56
2023-04-09T16:36:42.874Z,102530.97
2023-04-09T16:38:44.317Z,102539.81
2023-04-09T16:40:45.967Z,102529.94
2023-04-09T16:42:47.445Z,102539.72
2023-04-09T16:44:49.351Z,102528.38
2023-04-09T16:46:51.008Z,102524.88
2023-04-09T16:48:52.738Z,102528.97
2023-04-09T16:50:54.398Z,102525.75
2023-04-09T16:52:55.907Z,102522.75
2023-04-09T16:54:57.348Z,102520.44
2023-04-09T16:56:58.811Z,102522.56
2023-04-09T16:59:00.288Z,102528.41
2023-04-09T17:01:02.204Z,102518.97
2023-04-09T17:03:03.950Z,102525.59
2023-04-09T17:05:06.064Z,102508.25
2023-04-09T17:07:07.577Z,102521.91
2023-04-09T17:09:09.414Z,102513.31
2023-04-09T17:11:15.457Z,102524.34
2023-04-09T17:13:17.315Z,102521.13
2023-04-09T17:15:18.789Z,102521.53
2023-04-09T17:17:20.320Z,102527.13
2023-04-09T17:19:22.058Z,102517.59
2023-04-09T17:21:23.595Z,102518.72
2023-04-09T17:23:25.120Z,102517.19
2023-04-09T17:25:27.065Z,102514.72
2023-04-09T17:27:28.582Z,102511.31
2023-04-09T17:29:30.998Z,102517.66
2023-04-09T17:31:32.456Z,102515.19
2023-04-09T17:33:33.947Z,102515.38
2023-04-09T17:35:35.455Z,102510.19
2023-04-09T17:37:38.653Z,102512.06
2023-04-09T17:39:40.500Z,102518.38
2023-04-09T17:41:45.296Z,102514.94
2023-04-09T17:43:46.772Z,102507.09
2023-04-09T17:45:49.246Z,102508.13
2023-04-09T17:47:51.141Z,102508.28
2023-04-09T17:49:52.806Z,102509.28
2023-04-09T17:51:54.397Z,102508.63
2023-04-09T17:53:56.284Z,102509.59
2023-04-09T17:55:57.878Z,102512.44
2023-04-09T17:57:59.399Z,102511.66
2023-04-09T18:00:01.581Z,102515.28
2023-04-09T18:02:03.575Z,102512.72
2023-04-09T18:04:05.513Z,102511.00
2023-04-09T18:06:07.620Z,102508.41
2023-04-09T18:08:09.143Z,102502.31
2023-04-09T18:10:10.911Z,102505.91
2023-04-09T18:12:12.437Z,102509.53
2023-04-09T18:14:13.997Z,102514.03
2023-04-09T18:16:17.494Z,102510.56
2023-04-09T18:18:19.082Z,102513.25
2023-04-09T18:20:20.776Z,102519.50
2023-04-09T18:22:22.605Z,102524.81
2023-04-09T18:24:26.217Z,102522.22
2023-04-09T18:26:27.661Z,102524.91
2023-04-09T18:28:29.356Z,102527.59
2023-04-09T18:30:31.426Z,102528.50
2023-04-09T18:32:33.566Z,102536.50
2023-04-09T18:34:35.236Z,102531.22
2023-04-09T18:36:36.795Z,102540.09
2023-04-09T18:38:38.473Z,102542.75
2023-04-09T18:40:44.276Z,102541.88
2023-04-09T18:42:51.692Z,102543.69
2023-04-09T18:44:53.213Z,102556.06
2023-04-09T18:46:54.901Z,102553.44
2023-04-09T18:48:56.461Z,102556.09
2023-04-09T18:50:58.974Z,102551.69
2023-04-09T18:53:00.971Z,102552.56
2023-04-09T18:55:02.457Z,102551.72
2023-04-09T18:57:04.216Z,102556.16
2023-04-09T18:59:05.759Z,102559.72
2023-04-09T19:01:11.803Z,102557.97
2023-04-09T19:03:13.563Z,102553.59
2023-04-09T19:05:15.283Z,102550.09
2023-04-09T19:07:17.114Z,102559.81
2023-04-09T19:09:19.079Z,102554.56
2023-04-09T19:11:20.533Z,102554.56
2023-04-09T19:13:22.004Z,102558.97
2023-04-09T19:15:26.314Z,102557.25
2023-04-09T19:17:28.242Z,102555.50
2023-04-09T19:19:29.893Z,102561.72
2023-04-09T19:21:31.525Z,102552.94
2023-04-09T19:23:34.535Z,102552.09
2023-04-09T19:25:36.191Z,102552.13
2023-04-09T19:27:38.812Z,102553.88
2023-04-09T19:29:40.400Z,102556.56
2023-04-09T19:31:41.960Z,102559.22
2023-04-09T19:33:43.500Z,102554.84
2023-04-09T19:35:47.943Z,102562.78
2023-04-09T19:37:49.484Z,102555.75
2023-04-09T19:39:51.061Z,102557.50
2023-04-09T19:41:52.598Z,102558.41
2023-04-09T19:43:54.079Z,102552.25
2023-04-09T19:45:56.371Z,102546.97
2023-04-09T19:47:57.867Z,102559.31
2023-04-09T19:49:59.851Z,102558.44
2023-04-09T19:52:01.326Z,102550.50
2023-04-09T19:54:02.786Z,102559.28
2023-04-09T19:56:04.523Z,102560.16
2023-04-09T19:58:06.904Z,102566.31
2023-04-09T20:00:08.855Z,102568.03
2023-04-09T20:02:10.626Z,102564.50
2023-04-09T20:04:12.917Z,102559.22
2023-04-09T20:06:14.572Z,102553.06
2023-04-09T20:08:16.659Z,102554.78
2023-04-09T20:10:18.690Z,102560.94
2023-04-09T20:12:21.718Z,102557.41
2023-04-09T20:14:23.278Z,102548.59
2023-04-09T20:16:24.768Z,102549.47
2023-04-09T20:18:26.277Z,102548.59
2023-04-09T20:20:27.767Z,102556.47
2023-04-09T20:22:29.493Z,102553.81
2023-04-09T20:24:31.033Z,102553.78
2023-04-09T20:26:32.523Z,102550.22
2023-04-09T20:28:35.142Z,102551.97
2023-04-09T20:30:36.932Z,102540.53
2023-04-09T20:32:38.450Z,102544.91
2023-04-09T20:34:40.022Z,102546.63
2023-04-09T20:36:43.657Z,102549.25
2023-04-09T20:38:45.413Z,102551.81
2023-04-09T20:40:47.074Z,102546.53
2023-04-09T20:42:48.693Z,102545.63
2023-04-09T20:44:50.193Z,102536.81
2023-04-09T20:46:51.981Z,102535.91
2023-04-09T20:48:53.673Z,102532.34
2023-04-09T20:50:56.723Z,102531.44
2023-04-09T20:52:58.799Z,102529.66
2023-04-09T20:55:00.828Z,102530.53
2023-04-09T20:57:03.462Z,102526.94
2023-04-09T20:59:04.998Z,102524.28
2023-04-09T21:01:09.137Z,102524.25
2023-04-09T21:03:10.826Z,102523.34
2023-04-09T21:05:22.833Z,102529.44
2023-04-09T21:07:25.222Z,102530.28
2023-04-09T21:09:26.792Z,102537.28
2023-04-09T21:11:29.106Z,102531.94
2023-04-09T21:13:33.681Z,102536.28
2023-04-09T21:15:39.286Z,102529.19
2023-04-09T21:17:40.922Z,102530.94
2023-04-09T21:19:42.677Z,102532.66
2023-04-09T21:21:44.173Z,102532.63
2023-04-09T21:23:45.674Z,102529.09
2023-04-09T21:25:47.147Z,102535.19
2023-04-09T21:27:48.613Z,102536.91
2023-04-09T21:29:50.287Z,102533.38
2023-04-09T21:31:51.755Z,102537.72
2023-04-09T21:33:53.310Z,102530.69
2023-04-09T21:35:54.803Z,102531.53
2023-04-09T21:37:56.787Z,102539.41
2023-04-09T21:39:58.264Z,102532.34
2023-04-09T21:42:00.158Z,102537.53
2023-04-09T21:44:07.904Z,102529.63
2023-04-09T21:46:09.467Z,102533.97
2023-04-09T21:48:12.364Z,102518.16
2023-04-09T21:50:14.683Z,102521.63
2023-04-09T21:52:17.157Z,102521.59
2023-04-09T21:54:18.633Z,102512.78
2023-04-09T21:56:20.350Z,102520.66
2023-04-09T21:58:21.873Z,102512.72
2023-04-09T22:00:23.342Z,102517.94
2023-04-09T22:02:24.973Z,102511.78
2023-04-09T22:04:27.110Z,102508.22
2023-04-09T22:06:29.301Z,102509.09
2023-04-09T22:08:30.893Z,102502.88
2023-04-09T22:10:32.416Z,102495.84
2023-04-09T22:12:36.090Z,102496.69
2023-04-09T22:14:39.124Z,102490.53
2023-04-09T22:16:41.561Z,102484.34
2023-04-09T22:18:43.033Z,102486.91
2023-04-09T22:20:44.504Z,102487.78
2023-04-09T22:22:46.050Z,102485.09
2023-04-09T22:24:47.533Z,102485.94
2023-04-09T22:26:49.014Z,102483.28
2023-04-09T22:28:50.804Z,102492.84
2023-04-09T22:30:52.961Z,102490.22
2023-04-09T22:32:54.534Z,102496.28
2023-04-09T22:34:56.032Z,102497.97
2023-04-09T22:36:57.725Z,102505.78
2023-04-09T22:38:59.253Z,102499.59
2023-04-09T22:41:01.562Z,102502.16
2023-04-09T22:43:03.222Z,102503.00
2023-04-09T22:45:05.026Z,102502.97
2023-04-09T22:47:06.488Z,102505.53
2023-04-09T22:49:08.499Z,102497.59
2023-04-09T22:51:10.219Z,102508.97
2023-04-09T22:53:12.170Z,102501.06
2023-04-09T22:55:13.913Z,102505.41
2023-04-09T22:57:15.479Z,102501.81
2023-04-09T22:59:17.456Z,102507.03
2023-04-09T23:01:22.145Z,102509.66
2023-04-09T23:03:24.034Z,102503.50
2023-04-09T23:05:25.678Z,102506.91
2023-04-09T23:07:27.367Z,102509.53
2023-04-09T23:09:30.832Z,102506.88
2023-04-09T23:11:32.345Z,102505.09
2023-04-09T23:13:33.829Z,102501.59
2023-04-09T23:15:35.307Z,102497.19
2023-04-09T23:17:36.916Z,102499.75
2023-04-09T23:19:38.408Z,102491.00
2023-04-09T23:21:39.916Z,102496.19